Missouri River (Missouri), Glasgow (06906500)

StateMissouriLatestUnknown (34300 cfs)
RiverMissouri RiverRatingObservedEstimated
Updated2021-01-24 9:30 (44 minutes ago)Flood - The river is flooding. Obstacles can be treacherous or deadly. The river should be avoided at this stage for casual trips and definitely for the inexperienced. Trips should be attempted only with protective gear and equipment.Flood(none)(none)
Discharge34300 cfs (median: 34400 cfs)High - The river is high and potentially dangerous, especially for the young and / or inexperienced. Normal stream obstacles are sometimes difficult to navigate. Extended distances can be attempted, but canoe travel may not be advisable.High(none)(none)
Height9.31 feetGood - Conditions are ideal for a canoe or kayak. Boats typically will drag on fewer than one-quarter of riffles, if at all, and portages are unnecessary or rare. Normal float lengths can be attempted without a problem.Good(none)(none)
TrendSteady (rising over 24 hours)Low - River is low but can still be floated. Some riffles are okay but most come with significant dragging and might need a portage. Float lengths should be reduced to accommodate low flow, dragging, and portages.Low(none)(none)
USGSExternal icon USGS Site (External icon Google Maps)Poor - River is too low to float comfortably. Most or all riffles will drag or must be portaged and some obstacles (such as slick shelf rock) cause undue problems. Avoid the river at this stage for casual paddling trips.Poor(none)(none)

Trending Data

Plot Image

Trips for Missouri River (Missouri), Glasgow (06906500)

DateStartEndDistanceConditionDischargeHeightFishingDetails

A total of 0 rows are displayed.

Condition Descriptions

Fishing Conditions

Fish Species

Notes

Classic Trip List

The classic River Trips application is still available for use. It is updated with the new system using a data retrofit. It is no longer maintained. The original River Trips application is no longer updated (as of 1 Dec 2016) but can be checked for errors or for the condition of the data before it was converted to the new system.

Gauge Data Table

ObservationHeightDischargeMaximum
Discharge
Minimum
Discharge
Mean
Discharge
P05P10P20P25P50
(Median)
P75P80P90P95
2021-01-24 09:30 9.31 34300 107000 (2010) 19800 (2003) 40800 20000 23000 25300 25600 34400 49900 56300 70300 105000
2021-01-24 08:30 9.31 34300 107000 (2010) 19800 (2003) 40800 20000 23000 25300 25600 34400 49900 56300 70300 105000
2021-01-24 07:30 9.31 34300 107000 (2010) 19800 (2003) 40800 20000 23000 25300 25600 34400 49900 56300 70300 105000
2021-01-24 06:30 9.32 34300 107000 (2010) 19800 (2003) 40800 20000 23000 25300 25600 34400 49900 56300 70300 105000
2021-01-24 05:30 9.33 34400 107000 (2010) 19800 (2003) 40800 20000 23000 25300 25600 34400 49900 56300 70300 105000
2021-01-24 04:30 9.29 34200 107000 (2010) 19800 (2003) 40800 20000 23000 25300 25600 34400 49900 56300 70300 105000
2021-01-24 03:30 9.25 34000 107000 (2010) 19800 (2003) 40800 20000 23000 25300 25600 34400 49900 56300 70300 105000
2021-01-24 02:30 9.25 34000 107000 (2010) 19800 (2003) 40800 20000 23000 25300 25600 34400 49900 56300 70300 105000
2021-01-24 01:30 9.31 34300 107000 (2010) 19800 (2003) 40800 20000 23000 25300 25600 34400 49900 56300 70300 105000
2021-01-24 00:30 9.28 34100 107000 (2010) 19800 (2003) 40800 20000 23000 25300 25600 34400 49900 56300 70300 105000
2021-01-23 23:30 9.29 34200 92800 (2010) 20000 (2003) 39900 20100 22100 25400 25800 33900 48400 56300 71000 91700
2021-01-23 22:30 9.30 34200 92800 (2010) 20000 (2003) 39900 20100 22100 25400 25800 33900 48400 56300 71000 91700
2021-01-23 21:30 9.29 34200 92800 (2010) 20000 (2003) 39900 20100 22100 25400 25800 33900 48400 56300 71000 91700
2021-01-23 20:30 9.27 34100 92800 (2010) 20000 (2003) 39900 20100 22100 25400 25800 33900 48400 56300 71000 91700
2021-01-23 19:30 9.28 34100 92800 (2010) 20000 (2003) 39900 20100 22100 25400 25800 33900 48400 56300 71000 91700
2021-01-23 18:30 9.26 34100 92800 (2010) 20000 (2003) 39900 20100 22100 25400 25800 33900 48400 56300 71000 91700
2021-01-23 17:30 9.25 34000 92800 (2010) 20000 (2003) 39900 20100 22100 25400 25800 33900 48400 56300 71000 91700
2021-01-23 16:30 9.22 33900 92800 (2010) 20000 (2003) 39900 20100 22100 25400 25800 33900 48400 56300 71000 91700
2021-01-23 15:30 9.22 33900 92800 (2010) 20000 (2003) 39900 20100 22100 25400 25800 33900 48400 56300 71000 91700
2021-01-23 14:30 9.22 33900 92800 (2010) 20000 (2003) 39900 20100 22100 25400 25800 33900 48400 56300 71000 91700
2021-01-23 13:30 9.20 33800 92800 (2010) 20000 (2003) 39900 20100 22100 25400 25800 33900 48400 56300 71000 91700
2021-01-23 12:30 9.23 33900 92800 (2010) 20000 (2003) 39900 20100 22100 25400 25800 33900 48400 56300 71000 91700
2021-01-23 11:30 9.20 33800 92800 (2010) 20000 (2003) 39900 20100 22100 25400 25800 33900 48400 56300 71000 91700
2021-01-23 10:30 9.23 33900 92800 (2010) 20000 (2003) 39900 20100 22100 25400 25800 33900 48400 56300 71000 91700
2021-01-23 09:30 9.24 34000 92800 (2010) 20000 (2003) 39900 20100 22100 25400 25800 33900 48400 56300 71000 91700
2021-01-23 08:30 9.30 34200 92800 (2010) 20000 (2003) 39900 20100 22100 25400 25800 33900 48400 56300 71000 91700
2021-01-23 07:30 9.32 34300 92800 (2010) 20000 (2003) 39900 20100 22100 25400 25800 33900 48400 56300 71000 91700
2021-01-23 06:30 9.33 34400 92800 (2010) 20000 (2003) 39900 20100 22100 25400 25800 33900 48400 56300 71000 91700
2021-01-23 05:30 9.33 34400 92800 (2010) 20000 (2003) 39900 20100 22100 25400 25800 33900 48400 56300 71000 91700
2021-01-23 04:30 9.33 34400 92800 (2010) 20000 (2003) 39900 20100 22100 25400 25800 33900 48400 56300 71000 91700
2021-01-23 03:30 9.35 34400 92800 (2010) 20000 (2003) 39900 20100 22100 25400 25800 33900 48400 56300 71000 91700
2021-01-23 02:30 9.35 34400 92800 (2010) 20000 (2003) 39900 20100 22100 25400 25800 33900 48400 56300 71000 91700
2021-01-23 01:30 9.36 34500 92800 (2010) 20000 (2003) 39900 20100 22100 25400 25800 33900 48400 56300 71000 91700
2021-01-23 00:30 9.37 34500 92800 (2010) 20000 (2003) 39900 20100 22100 25400 25800 33900 48400 56300 71000 91700
2021-01-22 23:30 9.37 34500 92600 (2010) 20400 (2003) 39900 20400 20800 25400 26100 33100 48800 56600 73500 91700
2021-01-22 22:30 9.39 34600 92600 (2010) 20400 (2003) 39900 20400 20800 25400 26100 33100 48800 56600 73500 91700
2021-01-22 21:30 9.39 34600 92600 (2010) 20400 (2003) 39900 20400 20800 25400 26100 33100 48800 56600 73500 91700
2021-01-22 20:30 9.40 34600 92600 (2010) 20400 (2003) 39900 20400 20800 25400 26100 33100 48800 56600 73500 91700
2021-01-22 19:30 9.39 34600 92600 (2010) 20400 (2003) 39900 20400 20800 25400 26100 33100 48800 56600 73500 91700
2021-01-22 18:30 9.39 34600 92600 (2010) 20400 (2003) 39900 20400 20800 25400 26100 33100 48800 56600 73500 91700
2021-01-22 17:30 9.38 34600 92600 (2010) 20400 (2003) 39900 20400 20800 25400 26100 33100 48800 56600 73500 91700
2021-01-22 16:30 9.39 34600 92600 (2010) 20400 (2003) 39900 20400 20800 25400 26100 33100 48800 56600 73500 91700
2021-01-22 15:30 9.38 34600 92600 (2010) 20400 (2003) 39900 20400 20800 25400 26100 33100 48800 56600 73500 91700
2021-01-22 14:30 9.36 34500 92600 (2010) 20400 (2003) 39900 20400 20800 25400 26100 33100 48800 56600 73500 91700
2021-01-22 13:30 9.40 34600 92600 (2010) 20400 (2003) 39900 20400 20800 25400 26100 33100 48800 56600 73500 91700
2021-01-22 12:30 9.40 34600 92600 (2010) 20400 (2003) 39900 20400 20800 25400 26100 33100 48800 56600 73500 91700
2021-01-22 11:30 9.38 34600 92600 (2010) 20400 (2003) 39900 20400 20800 25400 26100 33100 48800 56600 73500 91700
2021-01-22 10:30 9.36 34500 92600 (2010) 20400 (2003) 39900 20400 20800 25400 26100 33100 48800 56600 73500 91700
2021-01-22 09:30 9.41 34700 92600 (2010) 20400 (2003) 39900 20400 20800 25400 26100 33100 48800 56600 73500 91700
2021-01-22 08:30 9.41 34700 92600 (2010) 20400 (2003) 39900 20400 20800 25400 26100 33100 48800 56600 73500 91700
2021-01-22 07:30 9.46 34900 92600 (2010) 20400 (2003) 39900 20400 20800 25400 26100 33100 48800 56600 73500 91700
2021-01-22 06:30 9.47 34900 92600 (2010) 20400 (2003) 39900 20400 20800 25400 26100 33100 48800 56600 73500 91700
2021-01-22 05:30 9.48 35000 92600 (2010) 20400 (2003) 39900 20400 20800 25400 26100 33100 48800 56600 73500 91700
2021-01-22 04:30 9.48 35000 92600 (2010) 20400 (2003) 39900 20400 20800 25400 26100 33100 48800 56600 73500 91700
2021-01-22 03:30 9.49 35000 92600 (2010) 20400 (2003) 39900 20400 20800 25400 26100 33100 48800 56600 73500 91700
2021-01-22 02:30 9.50 35100 92600 (2010) 20400 (2003) 39900 20400 20800 25400 26100 33100 48800 56600 73500 91700
2021-01-22 01:30 9.51 35100 92600 (2010) 20400 (2003) 39900 20400 20800 25400 26100 33100 48800 56600 73500 91700
2021-01-22 00:30 9.53 35200 92600 (2010) 20400 (2003) 39900 20400 20800 25400 26100 33100 48800 56600 73500 91700
2021-01-21 23:30 9.53 35200 77000 (2010) 19900 (2007) 39800 19900 21100 25700 26400 33100 52700 58400 75900 77000
2021-01-21 22:30 9.54 35200 77000 (2010) 19900 (2007) 39800 19900 21100 25700 26400 33100 52700 58400 75900 77000
2021-01-21 21:30 9.54 35200 77000 (2010) 19900 (2007) 39800 19900 21100 25700 26400 33100 52700 58400 75900 77000
2021-01-21 20:30 9.57 35400 77000 (2010) 19900 (2007) 39800 19900 21100 25700 26400 33100 52700 58400 75900 77000
2021-01-21 19:30 9.58 35400 77000 (2010) 19900 (2007) 39800 19900 21100 25700 26400 33100 52700 58400 75900 77000
2021-01-21 18:30 9.58 35400 77000 (2010) 19900 (2007) 39800 19900 21100 25700 26400 33100 52700 58400 75900 77000
2021-01-21 17:30 9.58 35400 77000 (2010) 19900 (2007) 39800 19900 21100 25700 26400 33100 52700 58400 75900 77000
2021-01-21 16:30 9.59 35400 77000 (2010) 19900 (2007) 39800 19900 21100 25700 26400 33100 52700 58400 75900 77000
2021-01-21 15:30 9.60 35500 77000 (2010) 19900 (2007) 39800 19900 21100 25700 26400 33100 52700 58400 75900 77000
2021-01-21 14:30 9.61 35500 77000 (2010) 19900 (2007) 39800 19900 21100 25700 26400 33100 52700 58400 75900 77000
2021-01-21 13:30 9.62 35600 77000 (2010) 19900 (2007) 39800 19900 21100 25700 26400 33100 52700 58400 75900 77000
2021-01-21 12:30 9.63 35600 77000 (2010) 19900 (2007) 39800 19900 21100 25700 26400 33100 52700 58400 75900 77000
2021-01-21 11:30 9.64 35700 77000 (2010) 19900 (2007) 39800 19900 21100 25700 26400 33100 52700 58400 75900 77000
2021-01-21 10:30 9.62 35600 77000 (2010) 19900 (2007) 39800 19900 21100 25700 26400 33100 52700 58400 75900 77000
2021-01-21 09:30 9.68 35800 77000 (2010) 19900 (2007) 39800 19900 21100 25700 26400 33100 52700 58400 75900 77000
2021-01-21 08:30 9.70 35900 77000 (2010) 19900 (2007) 39800 19900 21100 25700 26400 33100 52700 58400 75900 77000
2021-01-21 07:30 9.70 35900 77000 (2010) 19900 (2007) 39800 19900 21100 25700 26400 33100 52700 58400 75900 77000
2021-01-21 06:30 9.71 36000 77000 (2010) 19900 (2007) 39800 19900 21100 25700 26400 33100 52700 58400 75900 77000
2021-01-21 05:30 9.71 36000 77000 (2010) 19900 (2007) 39800 19900 21100 25700 26400 33100 52700 58400 75900 77000
2021-01-21 04:30 9.71 36000 77000 (2010) 19900 (2007) 39800 19900 21100 25700 26400 33100 52700 58400 75900 77000
2021-01-21 03:30 9.72 36000 77000 (2010) 19900 (2007) 39800 19900 21100 25700 26400 33100 52700 58400 75900 77000
2021-01-21 02:30 9.73 36000 77000 (2010) 19900 (2007) 39800 19900 21100 25700 26400 33100 52700 58400 75900 77000
2021-01-21 01:30 9.75 36100 77000 (2010) 19900 (2007) 39800 19900 21100 25700 26400 33100 52700 58400 75900 77000
2021-01-21 00:30 9.75 36100 77000 (2010) 19900 (2007) 39800 19900 21100 25700 26400 33100 52700 58400 75900 77000

A total of 82 rows are displayed for years 2001 through 2020.